Time;durP1;ratioP1;P1;durP2;ratioP2;P2;SDS_P1;SDS_P2;PMS_P1;PMS_P2;Temp;Humidity;BMP_temperature;BMP_pressure;BME280_temperature;BME280_humidity;BME280_pressure;Samples;Min_cycle;Max_cycle;Signal;HPM_P1;HPM_P2
2021/12/08 00:00:59;;;;;;;7.45;1.77;;;5.30;99.90;;;;;;5069881;28;20099;-82
2021/12/08 00:03:28;;;;;;;3.25;1.42;;;5.30;99.90;;;;;;5071793;28;20029;-82
2021/12/08 00:05:54;;;;;;;5.05;1.88;;;5.30;99.90;;;;;;5073239;28;20024;-82
2021/12/08 00:08:23;;;;;;;9.13;2.20;;;5.30;99.90;;;;;;5071723;28;20036;-82
2021/12/08 00:13:30;;;;;;;5.40;1.83;;;5.30;99.90;;;;;;5073159;28;20477;-81
2021/12/08 00:15:59;;;;;;;9.60;2.92;;;5.40;99.90;;;;;;5043099;28;20025;-82
2021/12/08 00:18:27;;;;;;;7.32;2.08;;;5.30;99.90;;;;;;5072955;28;20031;-82
2021/12/08 00:20:56;;;;;;;8.55;1.98;;;5.30;99.90;;;;;;5071729;28;20130;-82
2021/12/08 00:23:23;;;;;;;7.45;1.95;;;5.30;99.90;;;;;;5072952;28;20028;-82
2021/12/08 00:25:50;;;;;;;7.03;2.50;;;5.30;99.90;;;;;;5071563;28;20051;-82
2021/12/08 00:28:17;;;;;;;10.55;2.63;;;5.30;99.90;;;;;;5055268;28;20040;-82
2021/12/08 00:30:47;;;;;;;7.75;2.17;;;5.30;99.90;;;;;;5071349;28;20024;-82
2021/12/08 00:33:14;;;;;;;12.27;3.10;;;5.40;99.90;;;;;;5072889;28;20012;-82
2021/12/08 00:35:41;;;;;;;8.18;2.55;;;5.40;99.90;;;;;;5072690;28;20020;-82
2021/12/08 00:38:07;;;;;;;5.78;2.38;;;5.40;99.90;;;;;;5072907;28;20024;-82
2021/12/08 00:40:34;;;;;;;3.60;2.13;;;5.40;99.90;;;;;;5070977;28;20020;-82
2021/12/08 00:43:01;;;;;;;5.88;2.15;;;5.40;99.90;;;;;;5038058;28;20493;-82
2021/12/08 00:45:29;;;;;;;11.15;2.95;;;5.50;99.90;;;;;;5071274;28;20028;-82
2021/12/08 00:47:56;;;;;;;7.33;2.93;;;5.50;99.90;;;;;;5054719;28;20397;-82
2021/12/08 00:50:27;;;;;;;6.15;2.75;;;5.50;99.90;;;;;;5070687;28;20067;-82
2021/12/08 00:52:54;;;;;;;7.93;3.13;;;5.50;99.90;;;;;;5070914;28;20088;-82
2021/12/08 00:55:21;;;;;;;7.30;3.08;;;5.60;99.90;;;;;;5070795;28;20035;-82
2021/12/08 00:57:47;;;;;;;4.20;2.50;;;5.60;99.90;;;;;;5086248;28;20388;-82
2021/12/08 01:00:36;;;;;;;6.57;2.80;;;5.60;99.90;;;;;;5076660;28;20388;-82
2021/12/08 01:03:02;;;;;;;5.25;2.55;;;5.60;99.90;;;;;;5085317;28;20032;-82
2021/12/08 01:05:37;;;;;;;4.78;2.33;;;5.60;99.90;;;;;;5080783;28;20032;-82
2021/12/08 01:08:04;;;;;;;5.38;2.03;;;5.70;99.90;;;;;;5097301;28;20031;-82
2021/12/08 01:10:30;;;;;;;4.43;1.58;;;5.70;99.90;;;;;;5072280;28;20119;-82
2021/12/08 01:12:56;;;;;;;3.88;1.50;;;5.70;99.90;;;;;;5091134;28;20114;-82
2021/12/08 01:15:24;;;;;;;3.42;1.40;;;5.80;99.90;;;;;;5084993;28;20540;-82
2021/12/08 01:17:49;;;;;;;4.80;1.55;;;5.90;99.90;;;;;;5083004;28;20052;-82
2021/12/08 01:20:16;;;;;;;6.63;1.65;;;6.00;99.90;;;;;;5066202;28;20128;-82
2021/12/08 01:22:43;;;;;;;2.40;1.20;;;6.00;99.90;;;;;;5091424;28;20046;-82
2021/12/08 01:25:09;;;;;;;4.78;1.23;;;6.00;99.90;;;;;;5069479;28;20097;-82
2021/12/08 01:27:35;;;;;;;4.20;1.20;;;6.10;99.90;;;;;;5057915;28;20025;-82
2021/12/08 01:30:03;;;;;;;2.08;0.80;;;6.10;99.90;;;;;;5083121;28;20840;-82
2021/12/08 01:32:29;;;;;;;3.28;1.20;;;6.20;99.90;;;;;;5077353;28;20412;-82
2021/12/08 01:34:55;;;;;;;1.75;0.90;;;6.20;99.90;;;;;;5094139;28;20034;-82
2021/12/08 01:37:21;;;;;;;4.72;1.30;;;6.30;99.90;;;;;;5099835;28;20039;-82
2021/12/08 01:39:47;;;;;;;3.80;1.08;;;6.30;99.90;;;;;;5068012;28;20032;-83
2021/12/08 01:42:18;;;;;;;3.95;1.30;;;6.30;99.90;;;;;;5104412;28;20511;-83
2021/12/08 01:47:29;;;;;;;4.70;1.00;;;6.30;99.90;;;;;;5091596;28;20046;-82
2021/12/08 01:49:56;;;;;;;5.93;0.95;;;6.30;99.90;;;;;;5092107;28;20064;-83
2021/12/08 01:52:22;;;;;;;5.63;1.20;;;6.30;99.90;;;;;;5065561;28;20397;-82
2021/12/08 01:54:48;;;;;;;2.25;0.90;;;6.30;99.90;;;;;;5101652;28;20095;-83
2021/12/08 01:57:15;;;;;;;3.20;0.85;;;6.40;99.90;;;;;;5074706;28;20123;-82
2021/12/08 01:59:40;;;;;;;1.60;0.77;;;6.40;99.90;;;;;;5083549;28;20392;-82
2021/12/08 02:02:06;;;;;;;2.58;0.93;;;6.40;99.90;;;;;;5077581;28;20032;-83
2021/12/08 02:04:32;;;;;;;2.78;0.90;;;6.40;99.90;;;;;;5067536;28;20044;-83
2021/12/08 02:06:58;;;;;;;3.10;1.10;;;6.50;99.90;;;;;;5080030;28;20078;-83
2021/12/08 02:09:24;;;;;;;1.92;1.10;;;6.50;99.90;;;;;;5056923;28;20031;-83
2021/12/08 02:11:54;;;;;;;3.50;1.20;;;6.50;99.90;;;;;;5056208;28;20131;-83
2021/12/08 02:14:20;;;;;;;3.60;1.05;;;6.50;99.90;;;;;;5065535;28;20047;-83
2021/12/08 02:16:47;;;;;;;2.28;0.70;;;6.50;99.90;;;;;;5084912;28;20020;-82
2021/12/08 02:19:13;;;;;;;4.18;0.90;;;6.50;99.90;;;;;;5064047;28;20107;-82
2021/12/08 02:21:41;;;;;;;3.80;0.90;;;6.50;99.90;;;;;;5086127;28;20119;-83
2021/12/08 02:24:13;;;;;;;4.28;1.23;;;6.50;99.90;;;;;;5082509;28;20020;-82
2021/12/08 02:26:41;;;;;;;5.50;1.55;;;6.60;99.90;;;;;;5095350;28;20694;-83
2021/12/08 02:29:12;;;;;;;2.42;0.98;;;6.60;99.90;;;;;;5084235;28;20469;-83
2021/12/08 02:32:04;;;;;;;3.75;1.00;;;6.60;99.90;;;;;;5079808;28;20036;-83
2021/12/08 02:48:10;;;;;;;4.30;1.30;;;6.60;99.90;;;;;;5074190;28;20044;-82
2021/12/08 02:50:40;;;;;;;3.95;1.40;;;6.60;99.90;;;;;;5087524;28;20396;-83
2021/12/08 02:53:08;;;;;;;3.15;1.10;;;6.60;99.90;;;;;;5090650;28;20111;-82
2021/12/08 02:55:34;;;;;;;4.40;1.17;;;6.50;99.90;;;;;;5062221;28;20028;-83
2021/12/08 02:58:01;;;;;;;4.80;1.17;;;6.60;99.90;;;;;;5076468;28;20044;-83
2021/12/08 03:00:30;;;;;;;8.63;1.02;;;6.50;99.90;;;;;;5078242;28;20401;-83
2021/12/08 03:02:58;;;;;;;4.75;0.95;;;6.50;99.90;;;;;;5074841;28;20032;-82
2021/12/08 03:05:25;;;;;;;10.80;1.30;;;6.50;99.90;;;;;;5074379;28;20025;-82
2021/12/08 03:07:51;;;;;;;7.20;1.20;;;6.50;99.90;;;;;;5070202;28;20028;-82
2021/12/08 03:10:21;;;;;;;7.75;1.60;;;6.40;99.90;;;;;;5058663;28;20047;-82
2021/12/08 03:12:47;;;;;;;6.80;1.40;;;6.40;99.90;;;;;;5083030;28;20051;-83
2021/12/08 03:15:14;;;;;;;8.05;1.40;;;6.40;99.90;;;;;;5075858;28;20474;-82
2021/12/08 03:17:41;;;;;;;9.02;1.40;;;6.40;99.90;;;;;;5091124;28;20027;-82
2021/12/08 03:20:10;;;;;;;9.52;1.70;;;6.40;99.90;;;;;;5079972;28;20698;-83
2021/12/08 03:22:41;;;;;;;6.07;1.30;;;6.30;99.90;;;;;;5086428;28;20020;-83
2021/12/08 03:25:11;;;;;;;7.82;1.48;;;6.30;99.90;;;;;;5083031;28;20024;-83
2021/12/08 03:27:44;;;;;;;8.07;1.20;;;6.30;99.90;;;;;;5084007;28;20020;-83
2021/12/08 03:30:17;;;;;;;3.45;1.23;;;6.30;99.90;;;;;;5077499;28;20123;-83
2021/12/08 03:32:43;;;;;;;5.55;1.30;;;6.30;99.90;;;;;;5080152;28;20029;-82
2021/12/08 03:35:13;;;;;;;4.00;1.10;;;6.20;99.90;;;;;;5062637;28;20020;-83
2021/12/08 03:37:42;;;;;;;12.85;1.55;;;6.20;99.90;;;;;;5080639;28;20111;-83
2021/12/08 03:40:24;;;;;;;6.45;1.35;;;6.30;99.90;;;;;;5086444;28;20030;-83
2021/12/08 03:42:56;;;;;;;7.70;1.20;;;6.20;99.90;;;;;;5091472;28;20043;-83
2021/12/08 03:45:47;;;;;;;12.23;1.77;;;6.30;99.90;;;;;;5074616;28;20025;-82
2021/12/08 03:48:39;;;;;;;8.65;1.40;;;6.30;99.90;;;;;;5092488;28;20028;-83
2021/12/08 03:51:04;;;;;;;7.90;1.42;;;6.30;99.90;;;;;;5086249;28;20028;-83
2021/12/08 03:53:30;;;;;;;5.82;1.30;;;6.30;99.90;;;;;;5078595;28;20111;-87
2021/12/08 03:55:55;;;;;;;10.15;1.50;;;6.30;99.90;;;;;;5046758;28;20033;-87
2021/12/08 03:58:23;;;;;;;12.52;1.27;;;6.30;99.90;;;;;;5091959;28;20039;-86
2021/12/08 04:00:51;;;;;;;8.02;1.75;;;6.30;99.90;;;;;;5085674;28;20035;-87
2021/12/08 04:03:18;;;;;;;8.93;1.40;;;6.30;99.90;;;;;;5064068;28;20567;-86
2021/12/08 04:05:51;;;;;;;6.60;1.20;;;6.30;99.90;;;;;;5075400;28;20468;-87
2021/12/08 04:08:27;;;;;;;11.63;1.63;;;6.30;99.90;;;;;;5048906;28;20028;-86
2021/12/08 04:10:53;;;;;;;8.27;1.00;;;6.30;99.90;;;;;;5085985;28;20074;-86
2021/12/08 04:13:33;;;;;;;4.72;1.17;;;6.20;99.90;;;;;;5090602;28;20495;-87
2021/12/08 04:15:59;;;;;;;10.25;1.25;;;6.20;99.90;;;;;;5078661;28;20022;-87
2021/12/08 04:18:25;;;;;;;6.95;1.40;;;6.20;99.90;;;;;;5077832;28;20032;-87
2021/12/08 04:20:55;;;;;;;7.72;1.20;;;6.20;99.90;;;;;;5067916;28;20027;-86
2021/12/08 04:23:22;;;;;;;5.25;1.05;;;6.20;99.90;;;;;;5096723;28;20035;-87
2021/12/08 04:25:53;;;;;;;8.05;1.15;;;6.30;99.90;;;;;;5080551;28;20031;-86
2021/12/08 04:28:22;;;;;;;7.03;1.20;;;6.30;99.90;;;;;;5096826;28;20004;-85
2021/12/08 04:31:11;;;;;;;6.68;1.00;;;6.30;99.90;;;;;;5080869;28;20106;-87
2021/12/08 04:33:37;;;;;;;8.02;1.20;;;6.30;99.90;;;;;;5101818;28;20030;-86
2021/12/08 04:36:07;;;;;;;6.68;1.05;;;6.20;99.90;;;;;;5101394;28;20131;-86
2021/12/08 04:38:39;;;;;;;10.25;1.50;;;6.20;99.90;;;;;;5076525;28;20617;-86
2021/12/08 04:41:10;;;;;;;12.40;1.70;;;6.20;99.90;;;;;;5063576;28;20040;-87
2021/12/08 04:51:44;;;;;;;11.60;1.60;;;6.00;99.90;;;;;;5110492;28;20038;-87
2021/12/08 05:00:40;;;;;;;13.05;2.05;;;5.90;99.90;;;;;;5102080;28;20051;-86
2021/12/08 05:08:41;;;;;;;14.90;1.58;;;5.70;99.90;;;;;;5101388;28;20028;-86
2021/12/08 05:11:20;;;;;;;10.02;1.52;;;5.70;99.90;;;;;;5084636;28;20027;-86
2021/12/08 05:13:53;;;;;;;14.20;1.60;;;5.70;99.90;;;;;;5086767;28;20023;-87
2021/12/08 05:16:21;;;;;;;14.73;2.13;;;5.70;99.90;;;;;;5094730;28;20027;-87
2021/12/08 05:18:48;;;;;;;11.50;1.50;;;5.70;99.90;;;;;;5109364;28;20442;-85
2021/12/08 05:21:40;;;;;;;6.53;1.33;;;5.70;99.90;;;;;;5082029;28;20427;-87
2021/12/08 05:24:13;;;;;;;8.95;1.27;;;5.70;99.90;;;;;;5106814;28;20366;-86
2021/12/08 05:26:48;;;;;;;15.23;1.98;;;5.70;99.90;;;;;;5086720;28;20119;-87
2021/12/08 05:29:20;;;;;;;12.43;1.58;;;5.70;99.90;;;;;;5088231;28;20025;-85
2021/12/08 05:31:47;;;;;;;12.02;1.80;;;5.60;99.90;;;;;;5112513;28;20088;-86
2021/12/08 05:34:12;;;;;;;10.52;1.60;;;5.60;99.90;;;;;;5077758;28;20073;-86
2021/12/08 05:36:39;;;;;;;11.52;1.80;;;5.60;99.90;;;;;;5092317;28;20035;-86
2021/12/08 05:39:10;;;;;;;10.23;1.45;;;5.60;99.90;;;;;;5068225;28;20025;-86
2021/12/08 05:41:38;;;;;;;14.18;1.80;;;5.60;99.90;;;;;;5109520;28;20024;-86
2021/12/08 05:44:05;;;;;;;8.90;1.40;;;5.60;99.90;;;;;;5085278;28;20085;-86
2021/12/08 05:46:33;;;;;;;9.35;1.73;;;5.60;99.90;;;;;;5088536;28;20059;-86
2021/12/08 05:49:01;;;;;;;11.00;1.33;;;5.60;99.90;;;;;;5057305;28;20508;-86
2021/12/08 05:51:32;;;;;;;13.75;1.70;;;5.60;99.90;;;;;;5050241;28;20035;-86
2021/12/08 05:54:04;;;;;;;11.10;2.17;;;5.60;99.90;;;;;;5095870;28;20106;-86
2021/12/08 05:56:30;;;;;;;10.32;1.67;;;5.50;99.90;;;;;;5089471;28;20040;-84
2021/12/08 05:58:58;;;;;;;11.55;1.70;;;5.50;99.90;;;;;;5065860;28;20489;-86
2021/12/08 06:01:26;;;;;;;10.77;1.50;;;5.50;99.90;;;;;;5088852;28;20035;-86
2021/12/08 06:03:52;;;;;;;10.40;1.83;;;5.50;99.90;;;;;;5085259;28;20084;-86
2021/12/08 06:06:21;;;;;;;12.82;1.52;;;5.50;99.90;;;;;;5082559;28;20304;-86
2021/12/08 06:08:47;;;;;;;10.18;2.00;;;5.50;99.90;;;;;;5090266;28;20077;-86
2021/12/08 06:11:14;;;;;;;11.82;1.77;;;5.50;99.90;;;;;;5090701;28;20032;-86
2021/12/08 06:13:42;;;;;;;19.27;2.30;;;5.50;99.90;;;;;;5102274;28;20081;-87
2021/12/08 06:16:08;;;;;;;20.42;1.90;;;5.50;99.90;;;;;;5082617;28;20028;-86
2021/12/08 06:18:39;;;;;;;15.30;2.15;;;5.50;99.90;;;;;;5075899;28;20035;-87
2021/12/08 06:21:09;;;;;;;13.32;2.08;;;5.50;99.90;;;;;;5071282;28;20031;-86
2021/12/08 06:23:37;;;;;;;14.18;1.92;;;5.40;99.90;;;;;;5086265;28;20039;-86
2021/12/08 06:26:04;;;;;;;13.82;2.03;;;5.40;99.90;;;;;;5068745;28;20032;-87
2021/12/08 06:28:30;;;;;;;8.00;1.58;;;5.50;99.90;;;;;;5105065;28;20096;-86
2021/12/08 06:30:56;;;;;;;13.45;1.98;;;5.50;99.90;;;;;;5103603;28;20472;-86
2021/12/08 06:33:22;;;;;;;15.48;2.05;;;5.50;99.90;;;;;;5077423;28;20032;-86
2021/12/08 06:35:52;;;;;;;15.05;1.85;;;5.50;99.90;;;;;;5103748;28;20090;-86
2021/12/08 06:38:19;;;;;;;11.77;2.03;;;5.50;99.90;;;;;;5102310;28;20020;-86
2021/12/08 06:40:53;;;;;;;14.95;2.20;;;5.50;99.90;;;;;;5087662;28;20084;-87
2021/12/08 06:43:28;;;;;;;12.90;1.88;;;5.50;99.90;;;;;;5112072;28;20028;-86
2021/12/08 06:45:56;;;;;;;10.20;1.73;;;5.50;99.90;;;;;;5088839;28;20709;-86
2021/12/08 06:48:33;;;;;;;9.32;1.80;;;5.40;99.90;;;;;;5093936;28;20092;-86
2021/12/08 06:51:10;;;;;;;10.30;1.60;;;5.50;99.90;;;;;;5099252;28;20031;-86
2021/12/08 06:53:37;;;;;;;11.07;2.03;;;5.40;99.90;;;;;;5094451;28;20103;-86
2021/12/08 06:56:23;;;;;;;13.23;1.90;;;5.40;99.90;;;;;;5079449;28;20028;-86
2021/12/08 06:58:56;;;;;;;10.70;1.50;;;5.40;99.90;;;;;;5109157;28;20015;-86
2021/12/08 07:04:30;;;;;;;7.25;1.60;;;5.30;99.90;;;;;;5103364;28;20111;-86
2021/12/08 07:07:08;;;;;;;12.65;1.83;;;5.30;99.90;;;;;;5091159;28;20073;-85
2021/12/08 07:09:45;;;;;;;10.13;1.48;;;5.30;99.90;;;;;;5106363;28;20024;-86
2021/12/08 07:12:25;;;;;;;10.73;1.48;;;5.20;99.90;;;;;;5090266;28;20034;-86
2021/12/08 07:15:00;;;;;;;8.95;1.70;;;5.30;99.90;;;;;;5082063;28;20020;-86
2021/12/08 07:17:32;;;;;;;11.38;1.52;;;5.20;99.90;;;;;;5103270;28;20020;-87
2021/12/08 07:20:14;;;;;;;9.02;1.60;;;5.20;99.90;;;;;;5100742;28;20126;-86
2021/12/08 07:22:44;;;;;;;14.20;1.88;;;5.20;99.90;;;;;;5106897;28;20024;-86
2021/12/08 07:25:12;;;;;;;7.82;1.30;;;5.10;99.90;;;;;;5074191;28;20040;-86
2021/12/08 07:27:38;;;;;;;10.80;1.52;;;5.10;99.90;;;;;;5092722;28;20047;-86
2021/12/08 07:30:11;;;;;;;10.00;1.20;;;5.10;99.90;;;;;;5047612;28;20517;-86
2021/12/08 07:32:38;;;;;;;10.35;2.15;;;5.10;99.90;;;;;;5093121;28;20019;-85
2021/12/08 07:35:28;;;;;;;12.55;1.65;;;5.10;99.90;;;;;;5110139;28;20031;-86
2021/12/08 07:37:55;;;;;;;10.15;1.17;;;5.10;99.90;;;;;;5100860;28;20024;-86
2021/12/08 07:40:48;;;;;;;13.55;1.42;;;5.20;99.90;;;;;;5090718;28;20039;-87
2021/12/08 07:43:18;;;;;;;10.95;1.52;;;5.10;99.90;;;;;;5053454;28;20039;-86
2021/12/08 07:45:50;;;;;;;8.18;1.23;;;5.10;99.90;;;;;;5091533;28;20101;-86
2021/12/08 07:48:29;;;;;;;9.40;1.48;;;5.10;99.90;;;;;;5101864;28;20384;-86
2021/12/08 07:51:00;;;;;;;10.88;1.70;;;5.10;99.90;;;;;;5087113;28;20032;-85
2021/12/08 07:53:29;;;;;;;7.47;1.23;;;5.10;99.90;;;;;;5096690;28;20544;-86
2021/12/08 07:56:02;;;;;;;13.68;2.08;;;5.10;99.90;;;;;;5094729;28;20032;-86
2021/12/08 07:58:30;;;;;;;14.60;1.60;;;5.10;99.90;;;;;;5099015;28;20034;-86
2021/12/08 08:01:08;;;;;;;12.00;1.70;;;5.10;99.90;;;;;;5087636;28;20430;-86
2021/12/08 08:03:34;;;;;;;14.27;1.52;;;5.10;99.90;;;;;;5101464;28;20063;-86
2021/12/08 08:06:05;;;;;;;12.27;1.80;;;5.10;99.90;;;;;;5093924;28;20063;-86
2021/12/08 08:08:34;;;;;;;9.70;1.58;;;5.10;99.90;;;;;;5111480;28;20403;-86
2021/12/08 08:11:06;;;;;;;9.07;1.43;;;5.10;99.90;;;;;;5109678;28;20027;-85
2021/12/08 08:13:32;;;;;;;12.32;1.73;;;5.10;99.90;;;;;;5090808;28;20020;-86
2021/12/08 08:16:05;;;;;;;9.38;1.50;;;5.10;99.90;;;;;;5066308;28;20028;-86
2021/12/08 08:18:33;;;;;;;12.00;1.30;;;5.20;99.90;;;;;;5084066;28;20093;-86
2021/12/08 08:21:02;;;;;;;10.30;1.70;;;5.20;99.90;;;;;;5080178;28;20101;-86
2021/12/08 08:23:31;;;;;;;12.27;1.70;;;5.20;99.90;;;;;;5093194;28;20664;-87
2021/12/08 08:25:58;;;;;;;7.35;1.40;;;5.20;99.90;;;;;;5088008;28;20123;-86
2021/12/08 08:28:24;;;;;;;11.68;1.48;;;5.20;99.90;;;;;;5077667;28;20038;-86
2021/12/08 08:30:57;;;;;;;9.32;1.50;;;5.30;99.90;;;;;;5105928;28;20016;-86
2021/12/08 08:33:25;;;;;;;9.40;1.65;;;5.30;99.90;;;;;;5107396;28;20026;-86
2021/12/08 08:35:54;;;;;;;8.05;1.42;;;5.30;99.90;;;;;;5077760;28;20020;-86
2021/12/08 08:38:27;;;;;;;10.90;2.10;;;5.30;99.90;;;;;;5086959;28;20765;-86
2021/12/08 08:41:03;;;;;;;10.07;1.30;;;5.30;99.90;;;;;;5080492;28;20032;-85
2021/12/08 08:43:30;;;;;;;8.60;1.40;;;5.40;99.90;;;;;;5100863;28;20464;-86
2021/12/08 08:46:09;;;;;;;7.78;1.60;;;5.40;99.90;;;;;;5065994;28;20150;-86
2021/12/08 08:48:52;;;;;;;6.28;1.73;;;5.40;99.90;;;;;;5087716;28;20031;-85
2021/12/08 08:57:30;;;;;;;8.23;1.90;;;5.50;99.90;;;;;;5070667;28;20055;-86
2021/12/08 09:00:11;;;;;;;12.45;1.58;;;5.60;99.80;;;;;;5091614;28;20028;-86
2021/12/08 09:02:39;;;;;;;8.57;1.65;;;5.60;99.70;;;;;;5071745;28;20036;-86
2021/12/08 09:05:27;;;;;;;14.75;1.55;;;5.60;99.70;;;;;;5055349;28;20499;-85
2021/12/08 09:07:55;;;;;;;7.05;1.27;;;5.70;99.60;;;;;;5078751;28;20054;-86
2021/12/08 09:10:32;;;;;;;8.25;1.27;;;5.70;99.50;;;;;;5088707;28;20097;-86
2021/12/08 09:13:02;;;;;;;21.95;1.88;;;5.70;99.30;;;;;;5078961;28;20094;-86
2021/12/08 09:15:39;;;;;;;8.68;1.50;;;5.70;98.90;;;;;;5093058;28;20044;-86
2021/12/08 09:18:29;;;;;;;10.43;1.85;;;5.70;98.90;;;;;;5078827;28;20369;-86
2021/12/08 09:21:14;;;;;;;12.82;1.60;;;5.70;98.80;;;;;;5089713;28;20031;-86
2021/12/08 09:23:57;;;;;;;12.63;2.20;;;5.70;98.70;;;;;;5087309;28;20024;-86
2021/12/08 09:26:25;;;;;;;10.90;1.52;;;5.70;98.60;;;;;;5092022;28;20447;-86
2021/12/08 09:29:07;;;;;;;13.95;1.40;;;5.80;98.60;;;;;;5097144;28;20024;-86
2021/12/08 09:31:40;;;;;;;9.98;1.65;;;5.80;98.50;;;;;;5097073;28;20118;-86
2021/12/08 09:34:20;;;;;;;6.50;1.25;;;5.80;98.50;;;;;;5090081;28;20023;-85
2021/12/08 09:36:50;;;;;;;5.15;1.20;;;5.80;98.40;;;;;;5074678;28;20012;-86
2021/12/08 09:39:26;;;;;;;5.25;1.15;;;5.80;98.40;;;;;;5078456;28;20027;-87
2021/12/08 09:41:57;;;;;;;11.23;1.67;;;5.80;98.40;;;;;;5082988;28;20441;-86
2021/12/08 09:44:28;;;;;;;10.32;1.60;;;5.80;98.40;;;;;;5092256;28;20028;-86
2021/12/08 09:46:54;;;;;;;6.20;1.30;;;5.80;98.40;;;;;;5095367;28;20213;-86
2021/12/08 09:49:23;;;;;;;8.00;1.85;;;5.80;98.10;;;;;;5086379;28;20028;-84
2021/12/08 09:51:49;;;;;;;;;;;5.90;98.10;;;;;;5076491;28;20024;-85
2021/12/08 09:54:16;;;;;;;11.60;1.30;;;5.90;98.10;;;;;;5095403;28;20322;-85
2021/12/08 09:56:42;;;;;;;9.60;1.52;;;5.90;98.00;;;;;;5076469;28;20037;-86
2021/12/08 09:59:09;;;;;;;11.50;1.35;;;5.90;98.10;;;;;;5095240;28;20024;-86
2021/12/08 10:01:38;;;;;;;10.30;1.30;;;5.90;98.00;;;;;;5095304;28;20794;-85
2021/12/08 10:04:03;;;;;;;6.03;1.70;;;5.90;98.00;;;;;;5091580;28;20043;-85
2021/12/08 10:06:29;;;;;;;11.10;1.38;;;6.00;98.10;;;;;;5052803;28;20036;-85
2021/12/08 10:08:57;;;;;;;7.95;1.23;;;6.10;98.20;;;;;;5071769;28;20396;-85
2021/12/08 10:11:26;;;;;;;10.18;1.52;;;6.20;98.30;;;;;;5086694;28;20028;-84
2021/12/08 10:13:52;;;;;;;10.70;2.20;;;6.30;98.20;;;;;;5081172;28;20569;-84
2021/12/08 10:16:18;;;;;;;16.25;3.08;;;6.40;98.10;;;;;;5097864;28;20023;-86
2021/12/08 10:18:44;;;;;;;9.68;2.40;;;6.50;97.90;;;;;;5064057;28;20027;-85
2021/12/08 10:21:10;;;;;;;10.75;2.20;;;6.50;97.80;;;;;;5109257;28;20076;-85
2021/12/08 10:23:38;;;;;;;7.93;2.13;;;6.60;97.80;;;;;;5087153;28;20426;-84
2021/12/08 10:26:08;;;;;;;11.57;1.70;;;6.70;97.70;;;;;;5077321;28;20055;-83
2021/12/08 10:28:35;;;;;;;13.40;2.95;;;6.70;97.60;;;;;;5085018;28;20028;-84
2021/12/08 10:31:26;;;;;;;9.63;2.42;;;6.70;97.60;;;;;;5101940;28;20020;-84
2021/12/08 10:36:45;;;;;;;14.77;2.50;;;6.80;97.60;;;;;;5092301;28;20055;-85
2021/12/08 10:39:21;;;;;;;6.90;2.00;;;6.90;97.50;;;;;;5081939;28;20094;-85
2021/12/08 10:41:52;;;;;;;9.75;1.77;;;6.90;97.40;;;;;;5093447;28;20440;-85
2021/12/08 10:45:22;;;;;;;11.57;1.92;;;7.00;97.30;;;;;;5097332;28;20043;-85
2021/12/08 10:47:54;;;;;;;7.28;1.65;;;7.00;97.10;;;;;;5096007;28;20543;-85
2021/12/08 10:55:56;;;;;;;4.72;1.20;;;7.00;96.80;;;;;;5109905;28;20072;-84
2021/12/08 10:58:30;;;;;;;8.98;1.63;;;7.10;96.70;;;;;;5096066;28;20147;-85
2021/12/08 11:00:59;;;;;;;6.93;1.58;;;7.10;96.60;;;;;;5092279;28;20083;-82
2021/12/08 11:03:30;;;;;;;8.02;1.55;;;7.20;96.40;;;;;;5094428;28;20027;-85
2021/12/08 11:06:00;;;;;;;6.40;1.92;;;7.20;96.20;;;;;;5088816;28;20036;-85
2021/12/08 11:08:32;;;;;;;6.20;2.05;;;7.20;96.10;;;;;;5095661;28;20426;-84
2021/12/08 11:11:05;;;;;;;7.18;1.65;;;7.30;96.20;;;;;;5086384;28;20479;-84
2021/12/08 11:13:35;;;;;;;6.80;1.35;;;7.30;96.00;;;;;;5106782;28;20039;-84
2021/12/08 11:16:14;;;;;;;12.77;1.63;;;7.30;95.90;;;;;;5094383;28;20051;-85
2021/12/08 11:18:45;;;;;;;;;;;7.40;95.80;;;;;;5084597;28;20031;-84
2021/12/08 11:21:23;;;;;;;7.20;1.10;;;7.30;95.70;;;;;;5083193;28;19908;-84
2021/12/08 11:23:52;;;;;;;4.93;0.70;;;7.30;95.80;;;;;;5076452;28;20024;-85
2021/12/08 11:26:36;;;;;;;7.95;1.23;;;7.30;95.90;;;;;;5072755;28;20031;-85
2021/12/08 11:29:15;;;;;;;3.92;0.95;;;7.40;96.00;;;;;;5096642;28;20099;-84
2021/12/08 11:31:52;;;;;;;11.82;1.50;;;7.40;95.60;;;;;;5094704;28;20149;-87
2021/12/08 11:34:24;;;;;;;7.38;1.27;;;7.40;95.30;;;;;;5093097;28;20464;-86
2021/12/08 11:36:52;;;;;;;8.27;1.13;;;7.50;95.20;;;;;;5082822;28;20043;-86
2021/12/08 11:39:23;;;;;;;7.25;1.10;;;7.60;94.90;;;;;;5115010;28;20042;-86
2021/12/08 11:41:53;;;;;;;7.78;1.38;;;7.80;93.90;;;;;;5096405;28;20036;-87
2021/12/08 11:44:22;;;;;;;9.20;1.73;;;8.10;93.40;;;;;;5096358;28;20426;-87
2021/12/08 11:46:51;;;;;;;13.20;1.42;;;8.20;92.80;;;;;;5095419;28;20583;-87
2021/12/08 11:49:18;;;;;;;5.90;1.30;;;8.00;92.80;;;;;;5100469;28;20035;-87
2021/12/08 11:51:44;;;;;;;8.07;1.27;;;7.80;93.10;;;;;;5075048;28;20077;-86
2021/12/08 11:54:48;;;;;;;6.75;1.40;;;7.70;93.50;;;;;;5074925;28;20028;-87
2021/12/08 11:57:16;;;;;;;7.38;1.45;;;7.60;93.80;;;;;;5087729;28;20100;-86
2021/12/08 11:59:58;;;;;;;5.55;1.33;;;7.50;93.90;;;;;;5088536;28;20114;-85
2021/12/08 12:02:28;;;;;;;7.95;1.38;;;7.50;94.10;;;;;;5074865;28;20024;-86
2021/12/08 12:04:54;;;;;;;4.10;1.15;;;7.50;94.30;;;;;;5079112;28;20031;-86
2021/12/08 12:07:20;;;;;;;5.72;1.40;;;7.50;94.40;;;;;;5087292;28;20106;-87
2021/12/08 12:09:47;;;;;;;9.32;1.38;;;7.50;94.40;;;;;;5077071;28;20138;-86
2021/12/08 12:12:14;;;;;;;9.55;1.55;;;7.50;94.50;;;;;;5074162;28;20021;-87
2021/12/08 12:14:41;;;;;;;7.43;1.10;;;7.40;94.40;;;;;;5113536;28;20059;-86
2021/12/08 12:17:07;;;;;;;8.75;1.75;;;7.40;94.40;;;;;;5087413;28;20023;-80
2021/12/08 12:19:42;;;;;;;11.25;1.50;;;7.40;94.40;;;;;;5094436;28;20047;-77
2021/12/08 12:22:27;;;;;;;8.88;1.55;;;7.40;94.50;;;;;;5075737;28;20796;-78
2021/12/08 12:25:11;;;;;;;12.48;1.48;;;7.40;94.60;;;;;;5090990;28;20026;-78
2021/12/08 12:27:45;;;;;;;4.95;1.23;;;7.40;94.60;;;;;;5094894;28;20028;-81
2021/12/08 12:30:45;;;;;;;9.98;1.35;;;7.30;94.80;;;;;;5106753;28;20035;-83
2021/12/08 12:33:16;;;;;;;5.07;1.25;;;7.30;94.00;;;;;;5091192;28;20016;-83
2021/12/08 12:35:51;;;;;;;12.00;1.23;;;7.30;94.30;;;;;;5076034;28;20016;-83
2021/12/08 12:38:17;;;;;;;4.65;1.23;;;7.20;94.40;;;;;;5089027;28;20371;-83
2021/12/08 12:40:51;;;;;;;4.25;1.10;;;7.20;94.40;;;;;;5095507;28;20030;-83
2021/12/08 12:43:26;;;;;;;8.07;1.65;;;7.20;94.40;;;;;;5113705;28;20081;-83
2021/12/08 12:46:06;;;;;;;6.90;1.60;;;7.20;94.30;;;;;;5095378;28;20042;-82
2021/12/08 12:48:32;;;;;;;6.82;1.55;;;7.20;94.40;;;;;;5095127;28;20388;-84
2021/12/08 12:51:09;;;;;;;6.85;1.48;;;7.20;94.40;;;;;;5084384;28;20115;-86
2021/12/08 12:53:35;;;;;;;4.85;1.50;;;7.20;94.50;;;;;;5092029;28;20023;-84
2021/12/08 12:56:01;;;;;;;9.20;1.60;;;7.20;94.40;;;;;;5095157;28;20046;-82
2021/12/08 12:58:47;;;;;;;7.10;1.65;;;7.20;94.40;;;;;;5074683;28;20047;-84
2021/12/08 13:01:33;;;;;;;9.82;1.58;;;7.20;94.40;;;;;;5075071;28;20043;-86
2021/12/08 13:04:09;;;;;;;9.68;1.85;;;7.20;94.40;;;;;;5090782;28;20804;-86
2021/12/08 13:06:45;;;;;;;6.13;1.52;;;7.20;94.40;;;;;;5092093;28;20101;-86
2021/12/08 13:09:37;;;;;;;6.90;1.42;;;7.10;94.40;;;;;;5091966;28;20035;-86
2021/12/08 13:12:21;;;;;;;14.80;2.17;;;7.20;94.50;;;;;;5091737;28;20043;-86
2021/12/08 13:15:20;;;;;;;7.50;1.50;;;7.20;94.40;;;;;;5090799;28;20047;-87
2021/12/08 13:18:08;;;;;;;5.60;1.45;;;7.20;94.20;;;;;;5093442;28;20038;-86
2021/12/08 13:20:37;;;;;;;14.05;1.80;;;7.20;94.10;;;;;;5075680;28;20029;-86
2021/12/08 13:23:06;;;;;;;7.50;1.70;;;7.20;94.20;;;;;;5071919;28;20120;-86
2021/12/08 13:25:52;;;;;;;8.57;1.60;;;7.20;94.30;;;;;;5071455;28;20025;-85
2021/12/08 13:28:39;;;;;;;9.82;1.73;;;7.20;94.30;;;;;;5071948;28;20024;-86
2021/12/08 13:31:37;;;;;;;5.50;1.42;;;7.10;94.20;;;;;;5079600;28;20031;-87
2021/12/08 13:34:08;;;;;;;8.40;2.05;;;7.10;94.40;;;;;;5085110;28;20020;-86
2021/12/08 13:36:39;;;;;;;9.73;2.13;;;7.10;94.40;;;;;;5073895;28;20059;-86
2021/12/08 13:39:29;;;;;;;6.97;2.03;;;7.10;94.50;;;;;;5083928;28;20031;-86
2021/12/08 13:42:01;;;;;;;8.32;1.80;;;7.10;94.50;;;;;;5091740;28;20073;-86
2021/12/08 13:44:49;;;;;;;9.45;1.70;;;7.10;94.40;;;;;;5091646;28;20032;-86
2021/12/08 13:47:26;;;;;;;6.18;1.58;;;7.10;94.50;;;;;;5091524;28;20073;-85
2021/12/08 13:49:57;;;;;;;7.07;1.92;;;7.10;94.50;;;;;;5090674;28;20047;-86
2021/12/08 13:52:24;;;;;;;4.55;1.55;;;7.10;94.50;;;;;;5090572;28;20533;-85
2021/12/08 13:54:56;;;;;;;8.65;1.85;;;7.10;94.50;;;;;;5087951;28;20053;-86
2021/12/08 13:57:52;;;;;;;6.43;1.52;;;7.10;94.50;;;;;;5097883;28;20048;-80
2021/12/08 14:00:18;;;;;;;6.90;1.30;;;7.10;94.30;;;;;;5103287;28;20396;-84
2021/12/08 14:02:48;;;;;;;10.93;1.63;;;7.10;94.30;;;;;;5094872;28;20031;-83
2021/12/08 14:05:25;;;;;;;6.65;1.33;;;7.10;94.30;;;;;;5094522;28;20770;-82
2021/12/08 14:07:54;;;;;;;8.20;1.45;;;7.20;94.40;;;;;;5085226;28;20073;-82
2021/12/08 14:10:29;;;;;;;8.02;1.38;;;7.10;94.40;;;;;;5094676;28;20077;-82
2021/12/08 14:13:04;;;;;;;6.05;1.25;;;7.10;94.40;;;;;;5098263;28;20026;-82